sensor_id;sensor_type;location;lat;lon;timestamp;pressure;altitude;pressure_sealevel;temperature;humidity
29163;BME280;20331;53.144;8.208;2023-02-18T00:06:49;102078.31;;;7.97;79.60
29163;BME280;20331;53.144;8.208;2023-02-18T00:17:11;102076.63;;;8.02;79.52
29163;BME280;20331;53.144;8.208;2023-02-18T00:27:32;102056.84;;;8.07;79.45
29163;BME280;20331;53.144;8.208;2023-02-18T00:37:54;102065.44;;;8.12;79.86
29163;BME280;20331;53.144;8.208;2023-02-18T00:48:15;102050.81;;;8.15;79.92
29163;BME280;20331;53.144;8.208;2023-02-18T00:58:37;102049.97;;;8.20;80.22
29163;BME280;20331;53.144;8.208;2023-02-18T01:08:58;102031.97;;;8.26;80.54
29163;BME280;20331;53.144;8.208;2023-02-18T01:19:19;102029.38;;;8.29;80.20
29163;BME280;20331;53.144;8.208;2023-02-18T01:29:41;102010.44;;;8.34;80.35
29163;BME280;20331;53.144;8.208;2023-02-18T01:40:02;102005.28;;;8.40;80.17
29163;BME280;20331;53.144;8.208;2023-02-18T01:50:24;102015.59;;;8.43;79.97
29163;BME280;20331;53.144;8.208;2023-02-18T02:00:46;102013.88;;;8.38;79.02
29163;BME280;20331;53.144;8.208;2023-02-18T02:11:20;102004.41;;;8.41;79.60
29163;BME280;20331;53.144;8.208;2023-02-18T02:53:13;101930.44;;;8.52;80.30
29163;BME280;20331;53.144;8.208;2023-02-18T03:03:46;101927.00;;;8.53;80.51
29163;BME280;20331;53.144;8.208;2023-02-18T03:24:32;101896.00;;;8.59;80.93
29163;BME280;20331;53.144;8.208;2023-02-18T03:34:56;101879.66;;;8.63;80.84
29163;BME280;20331;53.144;8.208;2023-02-18T03:45:20;101861.56;;;8.66;81.50
29163;BME280;20331;53.144;8.208;2023-02-18T03:55:41;101865.84;;;8.70;81.31
29163;BME280;20331;53.144;8.208;2023-02-18T04:06:03;101851.25;;;8.68;81.70
29163;BME280;20331;53.144;8.208;2023-02-18T04:16:25;101819.47;;;8.66;82.31
29163;BME280;20331;53.144;8.208;2023-02-18T04:26:46;101804.03;;;8.58;84.61
29163;BME280;20331;53.144;8.208;2023-02-18T04:37:08;101795.41;;;8.59;84.47
29163;BME280;20331;53.144;8.208;2023-02-18T04:47:29;101800.63;;;8.50;86.64
29163;BME280;20331;53.144;8.208;2023-02-18T04:57:50;101784.19;;;8.65;86.36
29163;BME280;20331;53.144;8.208;2023-02-18T05:08:12;101773.81;;;8.72;85.42
29163;BME280;20331;53.144;8.208;2023-02-18T05:18:33;101747.19;;;8.67;88.73
29163;BME280;20331;53.144;8.208;2023-02-18T05:28:55;101711.22;;;8.49;91.62
29163;BME280;20331;53.144;8.208;2023-02-18T05:39:17;101683.69;;;8.53;93.31
29163;BME280;20331;53.144;8.208;2023-02-18T05:49:39;101654.50;;;8.46;94.57
29163;BME280;20331;53.144;8.208;2023-02-18T06:00:01;101626.13;;;8.46;95.11
29163;BME280;20331;53.144;8.208;2023-02-18T06:10:22;101599.53;;;8.41;97.02
29163;BME280;20331;53.144;8.208;2023-02-18T06:20:45;101600.34;;;8.45;97.22
29163;BME280;20331;53.144;8.208;2023-02-18T06:31:06;101572.00;;;8.45;98.36
29163;BME280;20331;53.144;8.208;2023-02-18T06:41:28;101547.88;;;8.50;98.26
29163;BME280;20331;53.144;8.208;2023-02-18T06:51:49;101515.13;;;8.55;99.35
29163;BME280;20331;53.144;8.208;2023-02-18T07:02:14;101478.97;;;8.61;98.89
29163;BME280;20331;53.144;8.208;2023-02-18T07:12:35;101462.59;;;8.64;99.69
29163;BME280;20331;53.144;8.208;2023-02-18T07:22:57;101435.84;;;8.72;100.00
29163;BME280;20331;53.144;8.208;2023-02-18T07:33:18;101415.00;;;8.87;100.00
29163;BME280;20331;53.144;8.208;2023-02-18T07:43:40;101394.00;;;9.11;100.00
29163;BME280;20331;53.144;8.208;2023-02-18T07:54:01;101367.81;;;9.36;100.00
29163;BME280;20331;53.144;8.208;2023-02-18T08:04:22;101370.69;;;9.68;100.00
29163;BME280;20331;53.144;8.208;2023-02-18T08:14:44;101349.47;;;9.96;100.00
29163;BME280;20331;53.144;8.208;2023-02-18T08:25:05;101343.94;;;10.16;100.00
29163;BME280;20331;53.144;8.208;2023-02-18T08:35:27;101333.28;;;10.31;100.00
29163;BME280;20331;53.144;8.208;2023-02-18T08:45:48;101317.63;;;10.37;100.00
29163;BME280;20331;53.144;8.208;2023-02-18T08:56:12;101313.81;;;10.53;100.00
29163;BME280;20331;53.144;8.208;2023-02-18T09:06:37;101318.88;;;10.59;100.00
29163;BME280;20331;53.144;8.208;2023-02-18T09:16:59;101294.47;;;10.71;99.97
29163;BME280;20331;53.144;8.208;2023-02-18T09:27:20;101306.47;;;10.73;100.00
29163;BME280;20331;53.144;8.208;2023-02-18T09:37:42;101291.00;;;10.70;100.00
29163;BME280;20331;53.144;8.208;2023-02-18T09:48:03;101303.00;;;10.74;99.89
29163;BME280;20331;53.144;8.208;2023-02-18T09:58:25;101297.81;;;10.74;98.42
29163;BME280;20331;53.144;8.208;2023-02-18T10:08:49;101304.09;;;10.64;99.96
29163;BME280;20331;53.144;8.208;2023-02-18T10:19:27;101291.19;;;10.63;100.00
29163;BME280;20331;53.144;8.208;2023-02-18T10:29:49;101316.97;;;10.67;99.89
29163;BME280;20331;53.144;8.208;2023-02-18T10:50:42;101295.50;;;10.64;100.00
29163;BME280;20331;53.144;8.208;2023-02-18T11:01:05;101301.56;;;10.61;100.00
29163;BME280;20331;53.144;8.208;2023-02-18T11:11:30;101300.72;;;10.61;100.00
29163;BME280;20331;53.144;8.208;2023-02-18T11:21:52;101308.38;;;10.65;100.00
29163;BME280;20331;53.144;8.208;2023-02-18T11:32:27;101324.81;;;10.63;100.00
29163;BME280;20331;53.144;8.208;2023-02-18T11:42:49;101322.09;;;10.69;99.98
29163;BME280;20331;53.144;8.208;2023-02-18T12:14:22;101346.09;;;10.75;100.00
29163;BME280;20331;53.144;8.208;2023-02-18T12:45:34;101346.66;;;10.88;99.47
29163;BME280;20331;53.144;8.208;2023-02-18T12:56:12;101362.94;;;10.94;98.16
29163;BME280;20331;53.144;8.208;2023-02-18T13:17:03;101367.56;;;11.17;95.58
29163;BME280;20331;53.144;8.208;2023-02-18T13:48:29;101384.66;;;11.26;93.16
29163;BME280;20331;53.144;8.208;2023-02-18T13:58:51;101419.06;;;11.31;92.66
29163;BME280;20331;53.144;8.208;2023-02-18T14:19:36;101432.69;;;11.39;89.64
29163;BME280;20331;53.144;8.208;2023-02-18T14:30:02;101439.56;;;11.40;88.20
29163;BME280;20331;53.144;8.208;2023-02-18T14:40:26;101465.56;;;11.37;88.07
29163;BME280;20331;53.144;8.208;2023-02-18T14:50:54;101464.81;;;11.32;88.64
29163;BME280;20331;53.144;8.208;2023-02-18T15:11:39;101484.59;;;11.34;86.86
29163;BME280;20331;53.144;8.208;2023-02-18T15:22:01;101489.28;;;11.19;88.94
29163;BME280;20331;53.144;8.208;2023-02-18T15:32:23;101516.25;;;11.08;89.37
29163;BME280;20331;53.144;8.208;2023-02-18T15:42:50;101522.31;;;11.09;87.81
29163;BME280;20331;53.144;8.208;2023-02-18T15:53:14;101539.03;;;10.93;88.67
29163;BME280;20331;53.144;8.208;2023-02-18T16:14:01;101545.56;;;10.69;88.34
29163;BME280;20331;53.144;8.208;2023-02-18T16:34:44;101576.06;;;10.52;88.47
29163;BME280;20331;53.144;8.208;2023-02-18T16:45:10;101590.06;;;10.41;89.90
29163;BME280;20331;53.144;8.208;2023-02-18T16:55:32;101598.00;;;10.30;91.99
29163;BME280;20331;53.144;8.208;2023-02-18T17:05:53;101616.34;;;10.15;91.99
29163;BME280;20331;53.144;8.208;2023-02-18T17:16:15;101621.59;;;10.09;91.19
29163;BME280;20331;53.144;8.208;2023-02-18T17:26:37;101634.69;;;9.97;92.93
29163;BME280;20331;53.144;8.208;2023-02-18T17:36:58;101671.91;;;9.87;93.51
29163;BME280;20331;53.144;8.208;2023-02-18T17:47:20;101670.31;;;9.77;93.85
29163;BME280;20331;53.144;8.208;2023-02-18T17:57:41;101693.63;;;9.71;95.40
29163;BME280;20331;53.144;8.208;2023-02-18T18:08:05;101704.09;;;9.60;96.10
29163;BME280;20331;53.144;8.208;2023-02-18T18:18:27;101705.97;;;9.49;96.33
29163;BME280;20331;53.144;8.208;2023-02-18T18:28:48;101724.09;;;9.46;95.53
29163;BME280;20331;53.144;8.208;2023-02-18T18:39:09;101734.41;;;9.48;94.99
29163;BME280;20331;53.144;8.208;2023-02-18T18:49:31;101751.69;;;9.43;94.72
29163;BME280;20331;53.144;8.208;2023-02-18T18:59:52;101743.09;;;9.41;94.57
29163;BME280;20331;53.144;8.208;2023-02-18T19:10:14;101746.53;;;9.43;94.77
29163;BME280;20331;53.144;8.208;2023-02-18T19:20:36;101756.03;;;9.38;93.90
29163;BME280;20331;53.144;8.208;2023-02-18T19:30:57;101764.69;;;9.32;93.82
29163;BME280;20331;53.144;8.208;2023-02-18T19:41:19;101762.16;;;9.28;93.34
29163;BME280;20331;53.144;8.208;2023-02-18T19:51:40;101776.00;;;9.21;93.16
29163;BME280;20331;53.144;8.208;2023-02-18T20:02:02;101769.16;;;9.17;92.73
29163;BME280;20331;53.144;8.208;2023-02-18T20:12:24;101760.59;;;9.11;93.18
29163;BME280;20331;53.144;8.208;2023-02-18T20:22:45;101752.03;;;9.06;93.86
29163;BME280;20331;53.144;8.208;2023-02-18T20:33:07;101758.94;;;9.04;94.22
29163;BME280;20331;53.144;8.208;2023-02-18T20:43:28;101739.16;;;9.02;94.58
29163;BME280;20331;53.144;8.208;2023-02-18T20:53:51;101725.44;;;8.95;94.69
29163;BME280;20331;53.144;8.208;2023-02-18T21:04:14;101726.25;;;9.02;95.05
29163;BME280;20331;53.144;8.208;2023-02-18T21:14:36;101728.81;;;9.05;95.29
29163;BME280;20331;53.144;8.208;2023-02-18T21:24:58;101721.03;;;9.06;95.24
29163;BME280;20331;53.144;8.208;2023-02-18T21:35:20;101716.78;;;9.04;95.72
29163;BME280;20331;53.144;8.208;2023-02-18T21:45:41;101714.28;;;8.96;96.28
29163;BME280;20331;53.144;8.208;2023-02-18T21:56:10;101709.94;;;9.00;97.10
29163;BME280;20331;53.144;8.208;2023-02-18T22:06:32;101707.47;;;8.86;97.54
29163;BME280;20331;53.144;8.208;2023-02-18T22:16:53;101698.06;;;8.79;97.70
29163;BME280;20331;53.144;8.208;2023-02-18T22:27:15;101673.19;;;8.72;98.34
29163;BME280;20331;53.144;8.208;2023-02-18T22:37:36;101664.59;;;8.70;97.91
29163;BME280;20331;53.144;8.208;2023-02-18T22:47:57;101628.50;;;8.70;98.62
29163;BME280;20331;53.144;8.208;2023-02-18T22:58:19;101638.00;;;8.65;98.13
29163;BME280;20331;53.144;8.208;2023-02-18T23:08:40;101628.56;;;8.64;98.46
29163;BME280;20331;53.144;8.208;2023-02-18T23:19:02;101613.06;;;8.66;98.89
29163;BME280;20331;53.144;8.208;2023-02-18T23:29:23;101614.81;;;8.62;98.50
29163;BME280;20331;53.144;8.208;2023-02-18T23:39:45;101604.50;;;8.59;98.48
29163;BME280;20331;53.144;8.208;2023-02-18T23:50:07;101609.88;;;8.38;97.59
